Portada
METAR-TAF:

METAR-TAF

Aeroports :

Leesburg, Virgínia, Estats Units d'Amèrica

latitud: 39-05N, longitud: 077-34W, altitud: 119 m

Observació

L'informe es va fer fa 22 minuts, a les 13:55 UTC
Vent 3 kt del Nord/Nord-Est
Temperatura 1°C
Humitat 100%
Pressió 1013 hPa
Visibilitat: 1.6 km
Cel cobert a una alçada de 300 ft

METAR: KJYO 181355Z AUTO 03003KT 1SM OVC003 01/01 A2991 RMK AO2

Hora: 09:17 (14:17 UTC)


TAF: manca

Observacions i pronòstics meteorològics de més de 4000 aeroports (METAR i TAF).

Les estacions disponibles són els punts grocs i vermells al mapa.

Posi el ratolí al punt desitjat per veure el nom de l'estació.

Feu clic per veure les observacions i els pronòstics meteorològics.

Per canviar el mapa: feu clic els botons verds amb una creu de color negre per apropar; al botó verd amb un guió per allunyar la imatge; o en les fletxes verdes per a mapes adjacents.


METAR-TAF: